sensor_id;sensor_type;location;lat;lon;timestamp;temperature;humidity
33207;DHT22;19565;46.602;11.534;2023-11-18T00:00:55;4.60;99.90
33207;DHT22;19565;46.602;11.534;2023-11-18T00:03:25;4.60;99.90
33207;DHT22;19565;46.602;11.534;2023-11-18T00:05:53;4.60;99.90
33207;DHT22;19565;46.602;11.534;2023-11-18T00:08:23;4.60;99.90
33207;DHT22;19565;46.602;11.534;2023-11-18T00:10:51;4.60;99.90
33207;DHT22;19565;46.602;11.534;2023-11-18T00:13:20;4.60;99.90
33207;DHT22;19565;46.602;11.534;2023-11-18T00:15:48;4.50;99.90
33207;DHT22;19565;46.602;11.534;2023-11-18T00:18:16;4.50;99.90
33207;DHT22;19565;46.602;11.534;2023-11-18T00:20:45;4.50;99.90
33207;DHT22;19565;46.602;11.534;2023-11-18T00:23:13;4.40;99.90
33207;DHT22;19565;46.602;11.534;2023-11-18T00:25:43;4.40;99.90
33207;DHT22;19565;46.602;11.534;2023-11-18T00:28:12;4.40;99.90
33207;DHT22;19565;46.602;11.534;2023-11-18T00:30:40;4.40;99.90
33207;DHT22;19565;46.602;11.534;2023-11-18T00:33:08;4.30;99.90
33207;DHT22;19565;46.602;11.534;2023-11-18T00:35:36;4.40;99.90
33207;DHT22;19565;46.602;11.534;2023-11-18T00:38:04;4.40;99.90
33207;DHT22;19565;46.602;11.534;2023-11-18T00:40:32;4.40;99.90
33207;DHT22;19565;46.602;11.534;2023-11-18T00:43:01;4.30;99.90
33207;DHT22;19565;46.602;11.534;2023-11-18T00:45:29;4.00;99.90
33207;DHT22;19565;46.602;11.534;2023-11-18T00:47:57;4.10;99.90
33207;DHT22;19565;46.602;11.534;2023-11-18T00:50:25;4.20;99.90
33207;DHT22;19565;46.602;11.534;2023-11-18T00:52:53;4.30;99.90
33207;DHT22;19565;46.602;11.534;2023-11-18T00:55:21;4.20;99.90
33207;DHT22;19565;46.602;11.534;2023-11-18T00:57:49;4.30;99.90
33207;DHT22;19565;46.602;11.534;2023-11-18T01:00:19;4.30;99.90
33207;DHT22;19565;46.602;11.534;2023-11-18T01:02:49;4.40;99.90
33207;DHT22;19565;46.602;11.534;2023-11-18T01:05:18;4.20;99.90
33207;DHT22;19565;46.602;11.534;2023-11-18T01:07:46;4.10;99.90
33207;DHT22;19565;46.602;11.534;2023-11-18T01:10:14;4.20;99.90
33207;DHT22;19565;46.602;11.534;2023-11-18T01:12:42;4.10;99.90
33207;DHT22;19565;46.602;11.534;2023-11-18T01:15:11;3.50;99.90
33207;DHT22;19565;46.602;11.534;2023-11-18T01:17:40;3.40;99.90
33207;DHT22;19565;46.602;11.534;2023-11-18T01:20:09;3.50;99.90
33207;DHT22;19565;46.602;11.534;2023-11-18T01:22:40;3.70;99.90
33207;DHT22;19565;46.602;11.534;2023-11-18T01:25:10;3.80;99.90
33207;DHT22;19565;46.602;11.534;2023-11-18T01:27:38;3.90;99.90
33207;DHT22;19565;46.602;11.534;2023-11-18T01:30:07;4.00;99.90
33207;DHT22;19565;46.602;11.534;2023-11-18T01:32:36;4.00;99.90
33207;DHT22;19565;46.602;11.534;2023-11-18T01:35:09;4.00;99.90
33207;DHT22;19565;46.602;11.534;2023-11-18T01:37:39;4.10;99.90
33207;DHT22;19565;46.602;11.534;2023-11-18T01:40:08;4.30;99.90
33207;DHT22;19565;46.602;11.534;2023-11-18T01:42:41;4.30;99.90
33207;DHT22;19565;46.602;11.534;2023-11-18T01:45:09;4.40;99.90
33207;DHT22;19565;46.602;11.534;2023-11-18T01:47:39;4.40;99.90
33207;DHT22;19565;46.602;11.534;2023-11-18T01:50:10;4.40;99.90
33207;DHT22;19565;46.602;11.534;2023-11-18T01:52:41;4.40;99.90
33207;DHT22;19565;46.602;11.534;2023-11-18T01:55:12;4.40;99.90
33207;DHT22;19565;46.602;11.534;2023-11-18T01:57:41;4.30;99.90
33207;DHT22;19565;46.602;11.534;2023-11-18T02:00:12;4.20;99.90
33207;DHT22;19565;46.602;11.534;2023-11-18T02:02:44;4.20;99.90
33207;DHT22;19565;46.602;11.534;2023-11-18T02:05:13;4.20;99.90
33207;DHT22;19565;46.602;11.534;2023-11-18T02:07:43;4.20;99.90
33207;DHT22;19565;46.602;11.534;2023-11-18T02:10:13;4.20;99.90
33207;DHT22;19565;46.602;11.534;2023-11-18T02:12:46;4.20;99.90
33207;DHT22;19565;46.602;11.534;2023-11-18T02:15:16;4.20;99.90
33207;DHT22;19565;46.602;11.534;2023-11-18T02:17:45;4.10;99.90
33207;DHT22;19565;46.602;11.534;2023-11-18T02:20:15;4.00;99.90
33207;DHT22;19565;46.602;11.534;2023-11-18T02:22:47;3.90;99.90
33207;DHT22;19565;46.602;11.534;2023-11-18T02:25:16;4.00;99.90
33207;DHT22;19565;46.602;11.534;2023-11-18T02:27:46;4.10;99.90
33207;DHT22;19565;46.602;11.534;2023-11-18T02:30:15;4.10;99.90
33207;DHT22;19565;46.602;11.534;2023-11-18T02:32:47;4.10;99.90
33207;DHT22;19565;46.602;11.534;2023-11-18T02:35:24;4.10;99.90
33207;DHT22;19565;46.602;11.534;2023-11-18T02:37:54;4.20;99.90
33207;DHT22;19565;46.602;11.534;2023-11-18T02:40:27;4.10;99.90
33207;DHT22;19565;46.602;11.534;2023-11-18T02:42:59;4.00;99.90
33207;DHT22;19565;46.602;11.534;2023-11-18T02:45:28;3.90;99.90
33207;DHT22;19565;46.602;11.534;2023-11-18T02:47:58;3.90;99.90
33207;DHT22;19565;46.602;11.534;2023-11-18T02:50:27;3.90;99.90
33207;DHT22;19565;46.602;11.534;2023-11-18T02:52:56;3.90;99.90
33207;DHT22;19565;46.602;11.534;2023-11-18T02:55:24;3.90;99.90
33207;DHT22;19565;46.602;11.534;2023-11-18T02:57:52;4.00;99.90
33207;DHT22;19565;46.602;11.534;2023-11-18T03:00:22;4.00;99.90
33207;DHT22;19565;46.602;11.534;2023-11-18T03:02:51;4.00;99.90
33207;DHT22;19565;46.602;11.534;2023-11-18T03:05:20;3.90;99.90
33207;DHT22;19565;46.602;11.534;2023-11-18T03:07:49;3.90;99.90
33207;DHT22;19565;46.602;11.534;2023-11-18T03:10:19;3.90;99.90
33207;DHT22;19565;46.602;11.534;2023-11-18T03:12:49;3.80;99.90
33207;DHT22;19565;46.602;11.534;2023-11-18T03:15:17;3.80;99.90
33207;DHT22;19565;46.602;11.534;2023-11-18T03:17:47;3.80;99.90
33207;DHT22;19565;46.602;11.534;2023-11-18T03:20:17;3.80;99.90
33207;DHT22;19565;46.602;11.534;2023-11-18T03:22:46;3.90;99.90
33207;DHT22;19565;46.602;11.534;2023-11-18T03:25:14;3.80;99.90
33207;DHT22;19565;46.602;11.534;2023-11-18T03:27:43;3.70;99.90
33207;DHT22;19565;46.602;11.534;2023-11-18T03:30:11;3.60;99.90
33207;DHT22;19565;46.602;11.534;2023-11-18T03:32:39;3.60;99.90
33207;DHT22;19565;46.602;11.534;2023-11-18T03:35:09;3.70;99.90
33207;DHT22;19565;46.602;11.534;2023-11-18T03:37:38;3.80;99.90
33207;DHT22;19565;46.602;11.534;2023-11-18T03:40:09;3.80;99.90
33207;DHT22;19565;46.602;11.534;2023-11-18T03:42:38;3.80;99.90
33207;DHT22;19565;46.602;11.534;2023-11-18T03:45:07;3.80;99.90
33207;DHT22;19565;46.602;11.534;2023-11-18T03:47:36;3.70;99.90
33207;DHT22;19565;46.602;11.534;2023-11-18T03:50:05;3.80;99.90
33207;DHT22;19565;46.602;11.534;2023-11-18T03:52:37;3.70;99.90
33207;DHT22;19565;46.602;11.534;2023-11-18T03:55:06;3.60;99.90
33207;DHT22;19565;46.602;11.534;2023-11-18T03:57:34;3.60;99.90
33207;DHT22;19565;46.602;11.534;2023-11-18T04:00:03;3.40;99.90
33207;DHT22;19565;46.602;11.534;2023-11-18T04:02:31;3.30;99.90
33207;DHT22;19565;46.602;11.534;2023-11-18T04:05:01;3.40;99.90
33207;DHT22;19565;46.602;11.534;2023-11-18T04:07:30;3.40;99.90
33207;DHT22;19565;46.602;11.534;2023-11-18T04:09:59;3.40;99.90
33207;DHT22;19565;46.602;11.534;2023-11-18T04:12:28;3.40;99.90
33207;DHT22;19565;46.602;11.534;2023-11-18T04:14:57;3.50;99.90
33207;DHT22;19565;46.602;11.534;2023-11-18T04:17:25;3.60;99.90
33207;DHT22;19565;46.602;11.534;2023-11-18T04:19:54;3.60;99.90
33207;DHT22;19565;46.602;11.534;2023-11-18T04:22:23;3.60;99.90
33207;DHT22;19565;46.602;11.534;2023-11-18T04:24:51;3.60;99.90
33207;DHT22;19565;46.602;11.534;2023-11-18T04:27:20;3.50;99.90
33207;DHT22;19565;46.602;11.534;2023-11-18T04:29:49;3.50;99.90
33207;DHT22;19565;46.602;11.534;2023-11-18T04:32:17;3.50;99.90
33207;DHT22;19565;46.602;11.534;2023-11-18T04:34:45;3.40;99.90
33207;DHT22;19565;46.602;11.534;2023-11-18T04:37:16;3.40;99.90
33207;DHT22;19565;46.602;11.534;2023-11-18T04:39:44;3.50;99.90
33207;DHT22;19565;46.602;11.534;2023-11-18T04:42:12;3.40;99.90
33207;DHT22;19565;46.602;11.534;2023-11-18T04:44:41;3.40;99.90
33207;DHT22;19565;46.602;11.534;2023-11-18T04:47:09;3.30;99.90
33207;DHT22;19565;46.602;11.534;2023-11-18T04:49:37;3.30;99.90
33207;DHT22;19565;46.602;11.534;2023-11-18T04:52:06;3.30;99.90
33207;DHT22;19565;46.602;11.534;2023-11-18T04:54:34;3.40;99.90
33207;DHT22;19565;46.602;11.534;2023-11-18T04:57:02;3.40;99.90
33207;DHT22;19565;46.602;11.534;2023-11-18T04:59:30;3.40;99.90
33207;DHT22;19565;46.602;11.534;2023-11-18T05:01:59;3.40;99.90
33207;DHT22;19565;46.602;11.534;2023-11-18T05:04:29;3.40;99.90
33207;DHT22;19565;46.602;11.534;2023-11-18T05:06:57;3.40;99.90
33207;DHT22;19565;46.602;11.534;2023-11-18T05:09:25;3.40;99.90
33207;DHT22;19565;46.602;11.534;2023-11-18T05:11:53;3.50;99.90
33207;DHT22;19565;46.602;11.534;2023-11-18T05:14:21;3.50;99.90
33207;DHT22;19565;46.602;11.534;2023-11-18T05:16:49;3.50;99.90
33207;DHT22;19565;46.602;11.534;2023-11-18T05:19:19;3.50;99.90
33207;DHT22;19565;46.602;11.534;2023-11-18T05:21:47;3.40;99.90
33207;DHT22;19565;46.602;11.534;2023-11-18T05:24:16;3.50;99.90
33207;DHT22;19565;46.602;11.534;2023-11-18T05:26:44;3.50;99.90
33207;DHT22;19565;46.602;11.534;2023-11-18T05:29:12;3.50;99.90
33207;DHT22;19565;46.602;11.534;2023-11-18T05:31:43;3.40;99.90
33207;DHT22;19565;46.602;11.534;2023-11-18T05:34:12;3.40;99.90
33207;DHT22;19565;46.602;11.534;2023-11-18T05:36:41;3.30;99.90
33207;DHT22;19565;46.602;11.534;2023-11-18T05:39:09;3.30;99.90
33207;DHT22;19565;46.602;11.534;2023-11-18T05:41:37;3.30;99.90
33207;DHT22;19565;46.602;11.534;2023-11-18T05:44:07;3.20;99.90
33207;DHT22;19565;46.602;11.534;2023-11-18T05:46:36;3.20;99.90
33207;DHT22;19565;46.602;11.534;2023-11-18T05:49:04;3.30;99.90
33207;DHT22;19565;46.602;11.534;2023-11-18T05:51:34;3.40;99.90
33207;DHT22;19565;46.602;11.534;2023-11-18T05:54:04;3.20;99.90
33207;DHT22;19565;46.602;11.534;2023-11-18T05:56:33;3.30;99.90
33207;DHT22;19565;46.602;11.534;2023-11-18T05:59:01;3.30;99.90
33207;DHT22;19565;46.602;11.534;2023-11-18T06:01:30;3.40;99.90
33207;DHT22;19565;46.602;11.534;2023-11-18T06:03:58;3.50;99.90
33207;DHT22;19565;46.602;11.534;2023-11-18T06:06:27;3.40;99.90
33207;DHT22;19565;46.602;11.534;2023-11-18T06:08:55;3.40;99.90
33207;DHT22;19565;46.602;11.534;2023-11-18T06:11:27;3.20;99.90
33207;DHT22;19565;46.602;11.534;2023-11-18T06:13:58;3.20;99.90
33207;DHT22;19565;46.602;11.534;2023-11-18T06:16:27;2.90;99.90
33207;DHT22;19565;46.602;11.534;2023-11-18T06:18:56;2.80;99.90
33207;DHT22;19565;46.602;11.534;2023-11-18T06:21:26;2.90;99.90
33207;DHT22;19565;46.602;11.534;2023-11-18T06:23:57;3.00;99.90
33207;DHT22;19565;46.602;11.534;2023-11-18T06:26:27;3.20;99.90
33207;DHT22;19565;46.602;11.534;2023-11-18T06:28:56;3.30;99.90
33207;DHT22;19565;46.602;11.534;2023-11-18T06:31:24;3.10;99.90
33207;DHT22;19565;46.602;11.534;2023-11-18T06:33:52;3.10;99.90
33207;DHT22;19565;46.602;11.534;2023-11-18T06:36:20;3.10;99.90
33207;DHT22;19565;46.602;11.534;2023-11-18T06:38:50;3.10;99.90
33207;DHT22;19565;46.602;11.534;2023-11-18T06:41:20;3.20;99.90
33207;DHT22;19565;46.602;11.534;2023-11-18T06:43:52;3.10;99.90
33207;DHT22;19565;46.602;11.534;2023-11-18T06:46:26;3.20;99.90
33207;DHT22;19565;46.602;11.534;2023-11-18T06:48:56;3.20;99.90
33207;DHT22;19565;46.602;11.534;2023-11-18T06:51:25;3.40;99.90
33207;DHT22;19565;46.602;11.534;2023-11-18T06:53:55;3.40;99.90
33207;DHT22;19565;46.602;11.534;2023-11-18T06:56:23;3.40;99.90
33207;DHT22;19565;46.602;11.534;2023-11-18T06:58:52;3.40;99.90
33207;DHT22;19565;46.602;11.534;2023-11-18T07:01:20;3.40;99.90
33207;DHT22;19565;46.602;11.534;2023-11-18T07:03:49;3.40;99.90
33207;DHT22;19565;46.602;11.534;2023-11-18T07:06:20;3.40;99.90
33207;DHT22;19565;46.602;11.534;2023-11-18T07:08:51;3.40;99.90
33207;DHT22;19565;46.602;11.534;2023-11-18T07:11:19;3.40;99.90
33207;DHT22;19565;46.602;11.534;2023-11-18T07:13:48;3.50;99.90
33207;DHT22;19565;46.602;11.534;2023-11-18T07:16:17;3.40;99.90
33207;DHT22;19565;46.602;11.534;2023-11-18T07:18:46;3.40;99.90
33207;DHT22;19565;46.602;11.534;2023-11-18T07:21:14;3.40;99.90
33207;DHT22;19565;46.602;11.534;2023-11-18T07:23:42;3.50;99.90
33207;DHT22;19565;46.602;11.534;2023-11-18T07:26:10;3.50;99.90
33207;DHT22;19565;46.602;11.534;2023-11-18T07:28:38;3.40;99.90
33207;DHT22;19565;46.602;11.534;2023-11-18T07:31:06;3.40;99.90
33207;DHT22;19565;46.602;11.534;2023-11-18T07:33:36;3.50;99.90
33207;DHT22;19565;46.602;11.534;2023-11-18T07:36:05;3.50;99.90
33207;DHT22;19565;46.602;11.534;2023-11-18T07:38:37;3.50;99.90
33207;DHT22;19565;46.602;11.534;2023-11-18T07:41:06;3.50;99.90
33207;DHT22;19565;46.602;11.534;2023-11-18T07:43:35;3.60;99.90
33207;DHT22;19565;46.602;11.534;2023-11-18T07:46:04;3.60;99.90
33207;DHT22;19565;46.602;11.534;2023-11-18T07:48:36;3.60;99.90
33207;DHT22;19565;46.602;11.534;2023-11-18T07:51:04;3.60;99.90
33207;DHT22;19565;46.602;11.534;2023-11-18T07:53:33;3.70;99.90
33207;DHT22;19565;46.602;11.534;2023-11-18T07:56:03;3.60;99.90
33207;DHT22;19565;46.602;11.534;2023-11-18T07:58:33;3.60;99.90
33207;DHT22;19565;46.602;11.534;2023-11-18T08:01:04;3.60;99.90
33207;DHT22;19565;46.602;11.534;2023-11-18T08:03:35;3.70;99.90
33207;DHT22;19565;46.602;11.534;2023-11-18T08:06:05;3.70;99.90
33207;DHT22;19565;46.602;11.534;2023-11-18T08:08:34;3.70;99.90
33207;DHT22;19565;46.602;11.534;2023-11-18T08:11:04;3.70;99.90
33207;DHT22;19565;46.602;11.534;2023-11-18T08:13:32;3.70;99.90
33207;DHT22;19565;46.602;11.534;2023-11-18T08:16:00;3.70;99.90
33207;DHT22;19565;46.602;11.534;2023-11-18T08:18:28;3.70;99.90
33207;DHT22;19565;46.602;11.534;2023-11-18T08:20:59;3.70;99.90
33207;DHT22;19565;46.602;11.534;2023-11-18T08:23:27;3.70;99.90
33207;DHT22;19565;46.602;11.534;2023-11-18T08:25:55;3.80;99.90
33207;DHT22;19565;46.602;11.534;2023-11-18T08:28:23;3.80;99.90
33207;DHT22;19565;46.602;11.534;2023-11-18T08:30:51;3.80;99.90
33207;DHT22;19565;46.602;11.534;2023-11-18T08:33:19;3.90;99.90
33207;DHT22;19565;46.602;11.534;2023-11-18T08:35:48;3.70;99.90
33207;DHT22;19565;46.602;11.534;2023-11-18T08:38:18;3.60;99.90
33207;DHT22;19565;46.602;11.534;2023-11-18T08:40:46;3.50;99.90
33207;DHT22;19565;46.602;11.534;2023-11-18T08:43:17;3.60;99.90
33207;DHT22;19565;46.602;11.534;2023-11-18T08:45:47;3.70;99.90
33207;DHT22;19565;46.602;11.534;2023-11-18T08:48:17;3.80;99.90
33207;DHT22;19565;46.602;11.534;2023-11-18T08:50:45;3.90;99.90
33207;DHT22;19565;46.602;11.534;2023-11-18T08:53:13;4.00;99.90
33207;DHT22;19565;46.602;11.534;2023-11-18T08:55:46;4.10;99.90
33207;DHT22;19565;46.602;11.534;2023-11-18T08:58:20;4.20;99.90
33207;DHT22;19565;46.602;11.534;2023-11-18T09:00:55;4.40;99.90
33207;DHT22;19565;46.602;11.534;2023-11-18T09:03:31;4.40;99.90
33207;DHT22;19565;46.602;11.534;2023-11-18T09:06:04;4.50;99.90
33207;DHT22;19565;46.602;11.534;2023-11-18T09:08:34;4.50;99.90
33207;DHT22;19565;46.602;11.534;2023-11-18T09:11:06;4.60;99.90
33207;DHT22;19565;46.602;11.534;2023-11-18T09:13:35;4.60;99.90
33207;DHT22;19565;46.602;11.534;2023-11-18T09:16:04;4.70;99.90
33207;DHT22;19565;46.602;11.534;2023-11-18T09:18:36;4.70;99.90
33207;DHT22;19565;46.602;11.534;2023-11-18T09:21:09;4.80;99.90
33207;DHT22;19565;46.602;11.534;2023-11-18T09:23:43;4.80;99.90
33207;DHT22;19565;46.602;11.534;2023-11-18T09:26:13;4.80;99.90
33207;DHT22;19565;46.602;11.534;2023-11-18T09:28:41;4.80;99.90
33207;DHT22;19565;46.602;11.534;2023-11-18T09:31:11;4.90;99.90
33207;DHT22;19565;46.602;11.534;2023-11-18T09:33:41;4.90;99.90
33207;DHT22;19565;46.602;11.534;2023-11-18T09:36:13;5.10;99.90
33207;DHT22;19565;46.602;11.534;2023-11-18T09:38:43;5.20;99.90
33207;DHT22;19565;46.602;11.534;2023-11-18T09:41:16;5.30;99.90
33207;DHT22;19565;46.602;11.534;2023-11-18T09:43:46;5.40;99.90
33207;DHT22;19565;46.602;11.534;2023-11-18T09:46:16;5.50;99.90
33207;DHT22;19565;46.602;11.534;2023-11-18T09:48:46;5.50;99.90
33207;DHT22;19565;46.602;11.534;2023-11-18T09:51:23;5.60;99.90
33207;DHT22;19565;46.602;11.534;2023-11-18T09:53:54;5.60;99.90
33207;DHT22;19565;46.602;11.534;2023-11-18T09:56:31;5.80;99.90
33207;DHT22;19565;46.602;11.534;2023-11-18T09:59:10;5.80;99.90
33207;DHT22;19565;46.602;11.534;2023-11-18T10:01:43;5.80;99.90
33207;DHT22;19565;46.602;11.534;2023-11-18T10:04:14;5.80;99.90
33207;DHT22;19565;46.602;11.534;2023-11-18T10:06:46;5.90;99.90
33207;DHT22;19565;46.602;11.534;2023-11-18T10:09:14;5.90;99.90
33207;DHT22;19565;46.602;11.534;2023-11-18T10:11:45;5.90;99.90
33207;DHT22;19565;46.602;11.534;2023-11-18T10:14:14;6.00;99.90
33207;DHT22;19565;46.602;11.534;2023-11-18T10:16:44;6.10;99.90
33207;DHT22;19565;46.602;11.534;2023-11-18T10:19:14;6.10;99.90
33207;DHT22;19565;46.602;11.534;2023-11-18T10:21:45;6.10;99.90
33207;DHT22;19565;46.602;11.534;2023-11-18T10:24:15;6.20;99.90
33207;DHT22;19565;46.602;11.534;2023-11-18T10:26:55;6.20;99.90
33207;DHT22;19565;46.602;11.534;2023-11-18T10:29:24;6.30;99.90
33207;DHT22;19565;46.602;11.534;2023-11-18T10:32:04;6.30;99.90
33207;DHT22;19565;46.602;11.534;2023-11-18T10:34:35;6.30;99.90
33207;DHT22;19565;46.602;11.534;2023-11-18T10:37:03;6.40;99.90
33207;DHT22;19565;46.602;11.534;2023-11-18T10:39:33;6.50;99.90
33207;DHT22;19565;46.602;11.534;2023-11-18T10:42:04;6.50;99.90
33207;DHT22;19565;46.602;11.534;2023-11-18T10:44:32;6.50;99.90
33207;DHT22;19565;46.602;11.534;2023-11-18T10:47:00;6.60;99.90
33207;DHT22;19565;46.602;11.534;2023-11-18T10:49:29;6.70;99.90
33207;DHT22;19565;46.602;11.534;2023-11-18T10:52:05;6.70;99.90
33207;DHT22;19565;46.602;11.534;2023-11-18T10:54:35;6.70;99.90
33207;DHT22;19565;46.602;11.534;2023-11-18T10:57:05;6.80;99.90
33207;DHT22;19565;46.602;11.534;2023-11-18T10:59:35;6.90;99.90
33207;DHT22;19565;46.602;11.534;2023-11-18T11:02:18;6.90;99.90
33207;DHT22;19565;46.602;11.534;2023-11-18T11:04:48;6.90;99.90
33207;DHT22;19565;46.602;11.534;2023-11-18T11:07:17;7.00;99.90
33207;DHT22;19565;46.602;11.534;2023-11-18T11:09:47;7.00;99.90
33207;DHT22;19565;46.602;11.534;2023-11-18T11:12:18;7.10;99.90
33207;DHT22;19565;46.602;11.534;2023-11-18T11:14:57;7.10;99.90
33207;DHT22;19565;46.602;11.534;2023-11-18T11:17:28;7.20;99.90
33207;DHT22;19565;46.602;11.534;2023-11-18T11:20:04;7.30;99.90
33207;DHT22;19565;46.602;11.534;2023-11-18T11:22:52;7.30;99.90
33207;DHT22;19565;46.602;11.534;2023-11-18T11:25:31;7.40;99.90
33207;DHT22;19565;46.602;11.534;2023-11-18T11:28:10;7.50;99.90
33207;DHT22;19565;46.602;11.534;2023-11-18T11:30:43;7.60;99.90
33207;DHT22;19565;46.602;11.534;2023-11-18T11:33:22;7.70;99.90
33207;DHT22;19565;46.602;11.534;2023-11-18T11:35:55;7.80;99.90
33207;DHT22;19565;46.602;11.534;2023-11-18T11:38:25;7.90;99.90
33207;DHT22;19565;46.602;11.534;2023-11-18T11:40:55;8.10;99.90
33207;DHT22;19565;46.602;11.534;2023-11-18T11:43:29;8.40;99.90
33207;DHT22;19565;46.602;11.534;2023-11-18T11:46:01;8.60;98.90
33207;DHT22;19565;46.602;11.534;2023-11-18T11:48:33;8.90;97.10
33207;DHT22;19565;46.602;11.534;2023-11-18T11:51:10;9.00;95.10
33207;DHT22;19565;46.602;11.534;2023-11-18T11:53:46;9.10;95.50
33207;DHT22;19565;46.602;11.534;2023-11-18T11:56:15;9.30;94.00
33207;DHT22;19565;46.602;11.534;2023-11-18T11:58:49;9.30;94.20
33207;DHT22;19565;46.602;11.534;2023-11-18T12:01:26;9.30;93.70
33207;DHT22;19565;46.602;11.534;2023-11-18T12:03:59;9.30;93.60
33207;DHT22;19565;46.602;11.534;2023-11-18T12:06:34;9.30;93.70
33207;DHT22;19565;46.602;11.534;2023-11-18T12:09:09;9.40;93.70
33207;DHT22;19565;46.602;11.534;2023-11-18T12:11:37;9.50;93.30
33207;DHT22;19565;46.602;11.534;2023-11-18T12:14:10;9.60;92.50
33207;DHT22;19565;46.602;11.534;2023-11-18T12:17:00;9.70;92.00
33207;DHT22;19565;46.602;11.534;2023-11-18T12:19:35;9.80;91.60
33207;DHT22;19565;46.602;11.534;2023-11-18T12:22:16;9.80;91.20
33207;DHT22;19565;46.602;11.534;2023-11-18T12:28:09;9.90;91.20
33207;DHT22;19565;46.602;11.534;2023-11-18T12:30:39;9.90;90.50
33207;DHT22;19565;46.602;11.534;2023-11-18T12:33:15;9.80;90.10
33207;DHT22;19565;46.602;11.534;2023-11-18T12:36:27;9.90;90.20
33207;DHT22;19565;46.602;11.534;2023-11-18T12:39:27;9.90;90.60
33207;DHT22;19565;46.602;11.534;2023-11-18T12:42:04;9.90;90.50
33207;DHT22;19565;46.602;11.534;2023-11-18T12:44:44;10.00;89.50
33207;DHT22;19565;46.602;11.534;2023-11-18T12:47:24;10.10;89.20
33207;DHT22;19565;46.602;11.534;2023-11-18T12:49:55;10.10;88.00
33207;DHT22;19565;46.602;11.534;2023-11-18T12:52:23;10.20;87.80
33207;DHT22;19565;46.602;11.534;2023-11-18T12:54:53;10.20;88.20
33207;DHT22;19565;46.602;11.534;2023-11-18T12:57:27;10.20;87.40
33207;DHT22;19565;46.602;11.534;2023-11-18T12:59:59;10.20;86.30
33207;DHT22;19565;46.602;11.534;2023-11-18T13:02:32;10.30;86.80
33207;DHT22;19565;46.602;11.534;2023-11-18T13:05:05;10.30;86.10
33207;DHT22;19565;46.602;11.534;2023-11-18T13:07:36;10.30;85.00
33207;DHT22;19565;46.602;11.534;2023-11-18T13:10:05;10.40;85.50
33207;DHT22;19565;46.602;11.534;2023-11-18T13:12:34;10.40;85.70
33207;DHT22;19565;46.602;11.534;2023-11-18T13:15:04;10.40;85.60
33207;DHT22;19565;46.602;11.534;2023-11-18T13:17:36;10.50;84.80
33207;DHT22;19565;46.602;11.534;2023-11-18T13:20:11;10.40;84.50
33207;DHT22;19565;46.602;11.534;2023-11-18T13:22:42;10.40;85.30
33207;DHT22;19565;46.602;11.534;2023-11-18T13:25:14;10.40;83.00
33207;DHT22;19565;46.602;11.534;2023-11-18T13:27:44;10.40;83.50
33207;DHT22;19565;46.602;11.534;2023-11-18T13:30:13;10.40;84.80
33207;DHT22;19565;46.602;11.534;2023-11-18T13:32:45;10.30;85.50
33207;DHT22;19565;46.602;11.534;2023-11-18T13:35:16;10.30;87.20
33207;DHT22;19565;46.602;11.534;2023-11-18T13:37:47;10.20;88.10
33207;DHT22;19565;46.602;11.534;2023-11-18T13:40:16;10.20;88.00
33207;DHT22;19565;46.602;11.534;2023-11-18T13:42:45;10.10;88.10
33207;DHT22;19565;46.602;11.534;2023-11-18T13:45:14;10.10;87.50
33207;DHT22;19565;46.602;11.534;2023-11-18T13:48:03;10.10;86.80
33207;DHT22;19565;46.602;11.534;2023-11-18T13:50:34;10.10;87.30
33207;DHT22;19565;46.602;11.534;2023-11-18T13:53:04;10.10;87.70
33207;DHT22;19565;46.602;11.534;2023-11-18T13:55:32;10.10;87.10
33207;DHT22;19565;46.602;11.534;2023-11-18T13:58:00;10.10;87.00
33207;DHT22;19565;46.602;11.534;2023-11-18T14:00:31;10.10;87.30
33207;DHT22;19565;46.602;11.534;2023-11-18T14:02:59;10.10;87.10
33207;DHT22;19565;46.602;11.534;2023-11-18T14:05:33;10.10;86.60
33207;DHT22;19565;46.602;11.534;2023-11-18T14:08:03;10.10;85.80
33207;DHT22;19565;46.602;11.534;2023-11-18T14:10:37;10.00;86.40
33207;DHT22;19565;46.602;11.534;2023-11-18T14:13:07;10.00;86.80
33207;DHT22;19565;46.602;11.534;2023-11-18T14:15:39;10.00;84.30
33207;DHT22;19565;46.602;11.534;2023-11-18T14:18:09;10.00;84.30
33207;DHT22;19565;46.602;11.534;2023-11-18T14:20:38;10.00;84.90
33207;DHT22;19565;46.602;11.534;2023-11-18T14:23:06;9.90;85.50
33207;DHT22;19565;46.602;11.534;2023-11-18T14:25:35;9.90;87.10
33207;DHT22;19565;46.602;11.534;2023-11-18T14:28:05;9.80;87.40
33207;DHT22;19565;46.602;11.534;2023-11-18T14:30:35;9.80;87.10
33207;DHT22;19565;46.602;11.534;2023-11-18T14:33:03;9.80;88.50
33207;DHT22;19565;46.602;11.534;2023-11-18T14:35:32;9.80;88.50
33207;DHT22;19565;46.602;11.534;2023-11-18T14:38:02;9.70;90.60
33207;DHT22;19565;46.602;11.534;2023-11-18T14:40:32;9.70;93.10
33207;DHT22;19565;46.602;11.534;2023-11-18T14:43:00;9.60;94.20
33207;DHT22;19565;46.602;11.534;2023-11-18T14:45:28;9.50;93.40
33207;DHT22;19565;46.602;11.534;2023-11-18T14:47:56;9.40;95.00
33207;DHT22;19565;46.602;11.534;2023-11-18T14:50:24;9.30;96.00
33207;DHT22;19565;46.602;11.534;2023-11-18T14:52:54;9.20;96.80
33207;DHT22;19565;46.602;11.534;2023-11-18T14:55:28;9.10;97.60
33207;DHT22;19565;46.602;11.534;2023-11-18T14:57:56;9.00;98.20
33207;DHT22;19565;46.602;11.534;2023-11-18T15:00:25;8.90;98.70
33207;DHT22;19565;46.602;11.534;2023-11-18T15:02:54;8.90;99.20
33207;DHT22;19565;46.602;11.534;2023-11-18T15:05:26;8.80;99.90
33207;DHT22;19565;46.602;11.534;2023-11-18T15:07:56;8.70;99.90
33207;DHT22;19565;46.602;11.534;2023-11-18T15:10:26;8.60;99.90
33207;DHT22;19565;46.602;11.534;2023-11-18T15:12:57;8.50;99.90
33207;DHT22;19565;46.602;11.534;2023-11-18T15:15:26;8.40;99.90
33207;DHT22;19565;46.602;11.534;2023-11-18T15:18:00;8.40;99.90
33207;DHT22;19565;46.602;11.534;2023-11-18T15:20:30;8.30;99.90
33207;DHT22;19565;46.602;11.534;2023-11-18T15:22:58;8.30;99.90
33207;DHT22;19565;46.602;11.534;2023-11-18T15:25:27;8.30;99.90
33207;DHT22;19565;46.602;11.534;2023-11-18T15:27:57;8.30;99.90
33207;DHT22;19565;46.602;11.534;2023-11-18T15:30:25;8.30;99.90
33207;DHT22;19565;46.602;11.534;2023-11-18T15:32:54;8.20;99.90
33207;DHT22;19565;46.602;11.534;2023-11-18T15:35:23;8.20;99.90
33207;DHT22;19565;46.602;11.534;2023-11-18T15:37:51;8.20;99.90
33207;DHT22;19565;46.602;11.534;2023-11-18T15:40:20;8.20;99.90
33207;DHT22;19565;46.602;11.534;2023-11-18T15:42:52;8.10;99.90
33207;DHT22;19565;46.602;11.534;2023-11-18T15:45:22;8.10;99.90
33207;DHT22;19565;46.602;11.534;2023-11-18T15:47:51;8.00;99.90
33207;DHT22;19565;46.602;11.534;2023-11-18T15:50:19;8.00;99.90
33207;DHT22;19565;46.602;11.534;2023-11-18T15:52:49;7.90;99.90